sensor_id;sensor_type;location;lat;lon;timestamp;P1;durP1;ratioP1;P2;durP2;ratioP2
60336;SDS011;46978;50.288;28.624;2022-09-21T00:01:03;4.78;;;3.44;;
60336;SDS011;46978;50.288;28.624;2022-09-21T00:02:09;5.10;;;3.56;;
60336;SDS011;46978;50.288;28.624;2022-09-21T00:03:12;5.58;;;3.44;;
60336;SDS011;46978;50.288;28.624;2022-09-21T00:04:14;4.62;;;3.39;;
60336;SDS011;46978;50.288;28.624;2022-09-21T00:05:16;5.43;;;3.52;;
60336;SDS011;46978;50.288;28.624;2022-09-21T00:06:19;5.43;;;3.47;;
60336;SDS011;46978;50.288;28.624;2022-09-21T00:07:22;5.04;;;3.31;;
60336;SDS011;46978;50.288;28.624;2022-09-21T00:08:24;5.25;;;3.54;;
60336;SDS011;46978;50.288;28.624;2022-09-21T00:09:25;5.84;;;3.64;;
60336;SDS011;46978;50.288;28.624;2022-09-21T00:10:28;5.30;;;3.21;;
60336;SDS011;46978;50.288;28.624;2022-09-21T00:11:31;5.58;;;3.50;;
60336;SDS011;46978;50.288;28.624;2022-09-21T00:12:33;6.08;;;3.89;;
60336;SDS011;46978;50.288;28.624;2022-09-21T00:13:35;5.57;;;3.54;;
60336;SDS011;46978;50.288;28.624;2022-09-21T00:14:37;5.33;;;3.67;;
60336;SDS011;46978;50.288;28.624;2022-09-21T00:15:39;6.56;;;3.72;;
60336;SDS011;46978;50.288;28.624;2022-09-21T00:16:41;6.31;;;3.67;;
60336;SDS011;46978;50.288;28.624;2022-09-21T00:17:43;5.11;;;3.50;;
60336;SDS011;46978;50.288;28.624;2022-09-21T00:18:46;5.51;;;3.74;;
60336;SDS011;46978;50.288;28.624;2022-09-21T00:19:48;5.42;;;3.75;;
60336;SDS011;46978;50.288;28.624;2022-09-21T00:20:50;5.32;;;3.41;;
60336;SDS011;46978;50.288;28.624;2022-09-21T00:21:55;5.33;;;3.69;;
60336;SDS011;46978;50.288;28.624;2022-09-21T00:22:57;6.55;;;3.83;;
60336;SDS011;46978;50.288;28.624;2022-09-21T00:23:59;5.39;;;3.61;;
60336;SDS011;46978;50.288;28.624;2022-09-21T00:25:01;5.79;;;3.85;;
60336;SDS011;46978;50.288;28.624;2022-09-21T00:26:10;5.71;;;3.98;;
60336;SDS011;46978;50.288;28.624;2022-09-21T00:27:14;6.31;;;3.71;;
60336;SDS011;46978;50.288;28.624;2022-09-21T00:28:15;5.35;;;3.58;;
60336;SDS011;46978;50.288;28.624;2022-09-21T00:29:17;6.33;;;3.97;;
60336;SDS011;46978;50.288;28.624;2022-09-21T00:30:20;5.26;;;3.67;;
60336;SDS011;46978;50.288;28.624;2022-09-21T00:31:22;6.19;;;4.12;;
60336;SDS011;46978;50.288;28.624;2022-09-21T00:32:24;5.85;;;3.86;;
60336;SDS011;46978;50.288;28.624;2022-09-21T00:33:26;5.25;;;3.92;;
60336;SDS011;46978;50.288;28.624;2022-09-21T00:34:28;7.41;;;4.04;;
60336;SDS011;46978;50.288;28.624;2022-09-21T00:35:30;5.84;;;3.73;;
60336;SDS011;46978;50.288;28.624;2022-09-21T00:36:33;5.49;;;3.83;;
60336;SDS011;46978;50.288;28.624;2022-09-21T00:37:35;5.44;;;3.81;;
60336;SDS011;46978;50.288;28.624;2022-09-21T00:38:37;5.48;;;3.99;;
60336;SDS011;46978;50.288;28.624;2022-09-21T00:39:39;6.98;;;4.24;;
60336;SDS011;46978;50.288;28.624;2022-09-21T00:40:41;5.28;;;3.62;;
60336;SDS011;46978;50.288;28.624;2022-09-21T00:41:42;5.57;;;3.80;;
60336;SDS011;46978;50.288;28.624;2022-09-21T00:42:44;5.90;;;3.86;;
60336;SDS011;46978;50.288;28.624;2022-09-21T00:43:47;6.37;;;4.36;;
60336;SDS011;46978;50.288;28.624;2022-09-21T00:44:51;5.69;;;3.89;;
60336;SDS011;46978;50.288;28.624;2022-09-21T00:45:56;6.65;;;4.23;;
60336;SDS011;46978;50.288;28.624;2022-09-21T00:47:03;7.86;;;4.41;;
60336;SDS011;46978;50.288;28.624;2022-09-21T00:48:04;6.70;;;4.01;;
60336;SDS011;46978;50.288;28.624;2022-09-21T00:49:06;5.52;;;3.89;;
60336;SDS011;46978;50.288;28.624;2022-09-21T00:50:12;5.94;;;4.07;;
60336;SDS011;46978;50.288;28.624;2022-09-21T00:51:16;5.60;;;4.13;;
60336;SDS011;46978;50.288;28.624;2022-09-21T00:52:18;6.31;;;4.15;;
60336;SDS011;46978;50.288;28.624;2022-09-21T00:53:23;6.09;;;4.09;;
60336;SDS011;46978;50.288;28.624;2022-09-21T00:54:26;6.56;;;4.07;;
60336;SDS011;46978;50.288;28.624;2022-09-21T00:55:32;6.06;;;4.04;;
60336;SDS011;46978;50.288;28.624;2022-09-21T00:56:39;5.99;;;4.38;;
60336;SDS011;46978;50.288;28.624;2022-09-21T00:57:42;5.64;;;3.87;;
60336;SDS011;46978;50.288;28.624;2022-09-21T00:58:48;6.34;;;3.86;;
60336;SDS011;46978;50.288;28.624;2022-09-21T00:59:54;5.47;;;3.56;;
60336;SDS011;46978;50.288;28.624;2022-09-21T01:00:57;6.02;;;4.22;;
60336;SDS011;46978;50.288;28.624;2022-09-21T01:02:01;6.40;;;4.12;;
60336;SDS011;46978;50.288;28.624;2022-09-21T01:03:03;6.20;;;4.11;;
60336;SDS011;46978;50.288;28.624;2022-09-21T01:04:05;6.13;;;3.97;;
60336;SDS011;46978;50.288;28.624;2022-09-21T01:05:08;5.23;;;3.88;;
60336;SDS011;46978;50.288;28.624;2022-09-21T01:06:16;6.69;;;3.85;;
60336;SDS011;46978;50.288;28.624;2022-09-21T01:07:17;6.11;;;3.96;;
60336;SDS011;46978;50.288;28.624;2022-09-21T01:08:22;6.51;;;3.96;;
60336;SDS011;46978;50.288;28.624;2022-09-21T01:09:25;5.68;;;3.92;;
60336;SDS011;46978;50.288;28.624;2022-09-21T01:10:31;5.62;;;4.05;;
60336;SDS011;46978;50.288;28.624;2022-09-21T01:11:42;6.21;;;4.12;;
60336;SDS011;46978;50.288;28.624;2022-09-21T01:13:04;5.36;;;3.72;;
60336;SDS011;46978;50.288;28.624;2022-09-21T01:16:35;6.31;;;4.03;;
60336;SDS011;46978;50.288;28.624;2022-09-21T01:17:49;5.23;;;3.72;;
60336;SDS011;46978;50.288;28.624;2022-09-21T01:21:28;6.88;;;4.15;;
60336;SDS011;46978;50.288;28.624;2022-09-21T01:27:33;7.04;;;4.33;;
60336;SDS011;46978;50.288;28.624;2022-09-21T01:30:05;5.59;;;3.82;;
60336;SDS011;46978;50.288;28.624;2022-09-21T01:31:11;7.16;;;4.03;;
60336;SDS011;46978;50.288;28.624;2022-09-21T01:32:20;5.59;;;4.18;;
60336;SDS011;46978;50.288;28.624;2022-09-21T01:33:27;6.26;;;4.05;;
60336;SDS011;46978;50.288;28.624;2022-09-21T01:35:38;6.28;;;3.87;;
60336;SDS011;46978;50.288;28.624;2022-09-21T01:36:52;5.89;;;4.09;;
60336;SDS011;46978;50.288;28.624;2022-09-21T01:38:11;5.82;;;4.16;;
60336;SDS011;46978;50.288;28.624;2022-09-21T01:39:15;6.12;;;4.00;;
60336;SDS011;46978;50.288;28.624;2022-09-21T01:40:22;5.67;;;3.86;;
60336;SDS011;46978;50.288;28.624;2022-09-21T01:41:26;5.77;;;4.02;;
60336;SDS011;46978;50.288;28.624;2022-09-21T01:42:32;6.62;;;4.39;;
60336;SDS011;46978;50.288;28.624;2022-09-21T01:43:36;7.75;;;4.28;;
60336;SDS011;46978;50.288;28.624;2022-09-21T01:44:40;6.43;;;4.17;;
60336;SDS011;46978;50.288;28.624;2022-09-21T01:45:46;7.29;;;4.39;;
60336;SDS011;46978;50.288;28.624;2022-09-21T01:46:51;7.66;;;3.95;;
60336;SDS011;46978;50.288;28.624;2022-09-21T01:47:54;6.78;;;4.44;;
60336;SDS011;46978;50.288;28.624;2022-09-21T01:48:59;6.04;;;4.16;;
60336;SDS011;46978;50.288;28.624;2022-09-21T01:50:05;5.66;;;4.01;;
60336;SDS011;46978;50.288;28.624;2022-09-21T01:51:10;6.21;;;4.29;;
60336;SDS011;46978;50.288;28.624;2022-09-21T01:54:02;5.92;;;3.82;;
60336;SDS011;46978;50.288;28.624;2022-09-21T01:55:22;5.92;;;3.86;;
60336;SDS011;46978;50.288;28.624;2022-09-21T01:56:31;5.79;;;3.69;;
60336;SDS011;46978;50.288;28.624;2022-09-21T01:59:05;6.18;;;4.18;;
60336;SDS011;46978;50.288;28.624;2022-09-21T02:00:17;6.41;;;4.23;;
60336;SDS011;46978;50.288;28.624;2022-09-21T02:01:20;5.69;;;3.90;;
60336;SDS011;46978;50.288;28.624;2022-09-21T02:03:58;5.86;;;4.01;;
60336;SDS011;46978;50.288;28.624;2022-09-21T02:05:04;7.09;;;4.38;;
60336;SDS011;46978;50.288;28.624;2022-09-21T02:06:07;5.69;;;3.94;;
60336;SDS011;46978;50.288;28.624;2022-09-21T02:07:11;5.55;;;3.76;;
60336;SDS011;46978;50.288;28.624;2022-09-21T02:08:15;6.15;;;4.10;;
60336;SDS011;46978;50.288;28.624;2022-09-21T02:09:17;6.52;;;4.17;;
60336;SDS011;46978;50.288;28.624;2022-09-21T02:10:23;5.55;;;4.04;;
60336;SDS011;46978;50.288;28.624;2022-09-21T02:11:33;6.11;;;4.02;;
60336;SDS011;46978;50.288;28.624;2022-09-21T02:12:34;6.65;;;4.07;;
60336;SDS011;46978;50.288;28.624;2022-09-21T02:13:37;5.51;;;4.09;;
60336;SDS011;46978;50.288;28.624;2022-09-21T02:14:41;5.61;;;4.10;;
60336;SDS011;46978;50.288;28.624;2022-09-21T02:22:46;6.06;;;4.22;;
60336;SDS011;46978;50.288;28.624;2022-09-21T02:23:55;6.59;;;4.17;;
60336;SDS011;46978;50.288;28.624;2022-09-21T02:25:03;5.37;;;4.09;;
60336;SDS011;46978;50.288;28.624;2022-09-21T02:26:07;7.07;;;3.97;;
60336;SDS011;46978;50.288;28.624;2022-09-21T02:27:31;6.54;;;4.27;;
60336;SDS011;46978;50.288;28.624;2022-09-21T02:28:50;5.61;;;3.98;;
60336;SDS011;46978;50.288;28.624;2022-09-21T02:31:00;5.69;;;3.81;;
60336;SDS011;46978;50.288;28.624;2022-09-21T02:33:13;6.17;;;4.17;;
60336;SDS011;46978;50.288;28.624;2022-09-21T02:34:19;6.62;;;3.93;;
60336;SDS011;46978;50.288;28.624;2022-09-21T02:37:01;5.48;;;4.04;;
60336;SDS011;46978;50.288;28.624;2022-09-21T02:38:07;6.82;;;4.27;;
60336;SDS011;46978;50.288;28.624;2022-09-21T02:39:20;6.78;;;4.34;;
60336;SDS011;46978;50.288;28.624;2022-09-21T02:40:21;6.57;;;4.32;;
60336;SDS011;46978;50.288;28.624;2022-09-21T02:41:30;6.54;;;4.43;;
60336;SDS011;46978;50.288;28.624;2022-09-21T02:42:40;7.79;;;4.12;;
60336;SDS011;46978;50.288;28.624;2022-09-21T02:43:51;5.50;;;3.92;;
60336;SDS011;46978;50.288;28.624;2022-09-21T02:45:06;5.97;;;4.18;;
60336;SDS011;46978;50.288;28.624;2022-09-21T02:46:20;6.38;;;4.34;;
60336;SDS011;46978;50.288;28.624;2022-09-21T02:47:28;6.71;;;4.38;;
60336;SDS011;46978;50.288;28.624;2022-09-21T02:48:33;7.11;;;4.71;;
60336;SDS011;46978;50.288;28.624;2022-09-21T02:49:38;6.33;;;4.31;;
60336;SDS011;46978;50.288;28.624;2022-09-21T02:50:56;8.15;;;4.08;;
60336;SDS011;46978;50.288;28.624;2022-09-21T02:52:00;7.03;;;4.52;;
60336;SDS011;46978;50.288;28.624;2022-09-21T02:53:04;6.39;;;4.42;;
60336;SDS011;46978;50.288;28.624;2022-09-21T02:54:10;7.03;;;4.80;;
60336;SDS011;46978;50.288;28.624;2022-09-21T02:55:15;7.42;;;4.23;;
60336;SDS011;46978;50.288;28.624;2022-09-21T02:56:20;7.63;;;4.27;;
60336;SDS011;46978;50.288;28.624;2022-09-21T02:57:22;6.95;;;4.01;;
60336;SDS011;46978;50.288;28.624;2022-09-21T02:58:25;5.69;;;3.89;;
60336;SDS011;46978;50.288;28.624;2022-09-21T02:59:30;6.09;;;4.36;;
60336;SDS011;46978;50.288;28.624;2022-09-21T03:00:33;8.18;;;4.68;;
60336;SDS011;46978;50.288;28.624;2022-09-21T03:01:37;6.69;;;4.72;;
60336;SDS011;46978;50.288;28.624;2022-09-21T03:02:42;5.48;;;3.83;;
60336;SDS011;46978;50.288;28.624;2022-09-21T03:03:45;6.68;;;4.29;;
60336;SDS011;46978;50.288;28.624;2022-09-21T03:04:48;5.76;;;4.19;;
60336;SDS011;46978;50.288;28.624;2022-09-21T03:05:51;7.74;;;4.36;;
60336;SDS011;46978;50.288;28.624;2022-09-21T03:06:54;6.44;;;4.47;;
60336;SDS011;46978;50.288;28.624;2022-09-21T03:07:56;6.87;;;4.51;;
60336;SDS011;46978;50.288;28.624;2022-09-21T03:08:58;7.39;;;4.27;;
60336;SDS011;46978;50.288;28.624;2022-09-21T03:10:00;7.63;;;4.45;;
60336;SDS011;46978;50.288;28.624;2022-09-21T03:11:02;7.29;;;4.43;;
60336;SDS011;46978;50.288;28.624;2022-09-21T03:12:04;7.11;;;4.52;;
60336;SDS011;46978;50.288;28.624;2022-09-21T03:13:07;6.36;;;4.26;;
60336;SDS011;46978;50.288;28.624;2022-09-21T03:14:09;7.21;;;4.51;;
60336;SDS011;46978;50.288;28.624;2022-09-21T03:15:10;6.23;;;4.23;;
60336;SDS011;46978;50.288;28.624;2022-09-21T03:16:13;5.47;;;3.81;;
60336;SDS011;46978;50.288;28.624;2022-09-21T03:17:15;7.33;;;3.81;;
60336;SDS011;46978;50.288;28.624;2022-09-21T03:18:17;6.92;;;4.21;;
60336;SDS011;46978;50.288;28.624;2022-09-21T03:19:18;5.34;;;3.83;;
60336;SDS011;46978;50.288;28.624;2022-09-21T03:20:21;6.93;;;4.26;;
60336;SDS011;46978;50.288;28.624;2022-09-21T03:21:23;8.39;;;4.20;;
60336;SDS011;46978;50.288;28.624;2022-09-21T03:22:26;6.63;;;3.81;;
60336;SDS011;46978;50.288;28.624;2022-09-21T03:23:28;6.50;;;4.38;;
60336;SDS011;46978;50.288;28.624;2022-09-21T03:24:30;6.01;;;4.15;;
60336;SDS011;46978;50.288;28.624;2022-09-21T03:25:32;5.83;;;3.83;;
60336;SDS011;46978;50.288;28.624;2022-09-21T03:26:34;6.18;;;3.76;;
60336;SDS011;46978;50.288;28.624;2022-09-21T03:27:35;6.26;;;3.78;;
60336;SDS011;46978;50.288;28.624;2022-09-21T03:28:37;5.96;;;4.06;;
60336;SDS011;46978;50.288;28.624;2022-09-21T03:29:39;5.95;;;4.05;;
60336;SDS011;46978;50.288;28.624;2022-09-21T03:30:42;6.91;;;4.12;;
60336;SDS011;46978;50.288;28.624;2022-09-21T03:31:44;5.77;;;3.87;;
60336;SDS011;46978;50.288;28.624;2022-09-21T03:32:50;6.50;;;3.76;;
60336;SDS011;46978;50.288;28.624;2022-09-21T03:33:51;6.62;;;4.12;;
60336;SDS011;46978;50.288;28.624;2022-09-21T03:34:53;5.35;;;3.53;;
60336;SDS011;46978;50.288;28.624;2022-09-21T03:35:54;5.91;;;3.78;;
60336;SDS011;46978;50.288;28.624;2022-09-21T03:36:56;5.39;;;3.45;;
60336;SDS011;46978;50.288;28.624;2022-09-21T03:37:58;5.35;;;3.63;;
60336;SDS011;46978;50.288;28.624;2022-09-21T03:39:00;4.91;;;3.51;;
60336;SDS011;46978;50.288;28.624;2022-09-21T03:40:03;4.60;;;3.41;;
60336;SDS011;46978;50.288;28.624;2022-09-21T03:41:05;5.84;;;3.77;;
60336;SDS011;46978;50.288;28.624;2022-09-21T03:42:08;5.21;;;3.65;;
60336;SDS011;46978;50.288;28.624;2022-09-21T03:43:09;6.27;;;4.10;;
60336;SDS011;46978;50.288;28.624;2022-09-21T03:44:11;5.95;;;3.87;;
60336;SDS011;46978;50.288;28.624;2022-09-21T03:45:12;5.59;;;3.64;;
60336;SDS011;46978;50.288;28.624;2022-09-21T03:46:15;5.69;;;3.58;;
60336;SDS011;46978;50.288;28.624;2022-09-21T03:47:17;5.81;;;3.76;;
60336;SDS011;46978;50.288;28.624;2022-09-21T03:48:19;4.68;;;3.39;;
60336;SDS011;46978;50.288;28.624;2022-09-21T03:49:21;5.72;;;3.51;;
60336;SDS011;46978;50.288;28.624;2022-09-21T03:50:26;5.41;;;3.24;;
60336;SDS011;46978;50.288;28.624;2022-09-21T03:51:27;6.34;;;4.05;;
60336;SDS011;46978;50.288;28.624;2022-09-21T03:52:29;5.85;;;4.06;;
60336;SDS011;46978;50.288;28.624;2022-09-21T03:53:31;6.44;;;4.33;;
60336;SDS011;46978;50.288;28.624;2022-09-21T03:54:33;6.77;;;4.27;;
60336;SDS011;46978;50.288;28.624;2022-09-21T03:55:35;5.96;;;4.25;;
60336;SDS011;46978;50.288;28.624;2022-09-21T03:56:37;5.75;;;4.13;;
60336;SDS011;46978;50.288;28.624;2022-09-21T03:57:39;6.57;;;3.89;;
60336;SDS011;46978;50.288;28.624;2022-09-21T03:58:40;5.69;;;3.69;;
60336;SDS011;46978;50.288;28.624;2022-09-21T03:59:42;7.22;;;4.70;;
60336;SDS011;46978;50.288;28.624;2022-09-21T04:00:44;7.15;;;4.44;;
60336;SDS011;46978;50.288;28.624;2022-09-21T04:01:46;7.41;;;4.59;;
60336;SDS011;46978;50.288;28.624;2022-09-21T04:02:48;7.00;;;4.23;;
60336;SDS011;46978;50.288;28.624;2022-09-21T04:03:50;8.16;;;4.51;;
60336;SDS011;46978;50.288;28.624;2022-09-21T04:04:51;5.98;;;3.85;;
60336;SDS011;46978;50.288;28.624;2022-09-21T04:05:53;6.24;;;4.04;;
60336;SDS011;46978;50.288;28.624;2022-09-21T04:06:55;7.53;;;4.57;;
60336;SDS011;46978;50.288;28.624;2022-09-21T04:07:58;6.21;;;3.83;;
60336;SDS011;46978;50.288;28.624;2022-09-21T04:09:00;7.03;;;4.41;;
60336;SDS011;46978;50.288;28.624;2022-09-21T04:10:03;6.37;;;4.11;;
60336;SDS011;46978;50.288;28.624;2022-09-21T04:11:10;6.05;;;4.09;;
60336;SDS011;46978;50.288;28.624;2022-09-21T04:12:13;6.20;;;4.19;;
60336;SDS011;46978;50.288;28.624;2022-09-21T04:13:15;6.74;;;3.96;;
60336;SDS011;46978;50.288;28.624;2022-09-21T04:14:16;6.50;;;3.81;;
60336;SDS011;46978;50.288;28.624;2022-09-21T04:15:18;6.16;;;4.44;;
60336;SDS011;46978;50.288;28.624;2022-09-21T04:16:20;5.87;;;3.83;;
60336;SDS011;46978;50.288;28.624;2022-09-21T04:17:22;7.11;;;4.16;;
60336;SDS011;46978;50.288;28.624;2022-09-21T04:18:24;6.15;;;4.13;;
60336;SDS011;46978;50.288;28.624;2022-09-21T04:19:25;7.87;;;3.93;;
60336;SDS011;46978;50.288;28.624;2022-09-21T04:20:27;5.95;;;4.07;;
60336;SDS011;46978;50.288;28.624;2022-09-21T04:21:29;7.09;;;4.46;;
60336;SDS011;46978;50.288;28.624;2022-09-21T04:22:31;7.56;;;4.42;;
60336;SDS011;46978;50.288;28.624;2022-09-21T04:23:33;6.84;;;4.03;;
60336;SDS011;46978;50.288;28.624;2022-09-21T04:24:37;6.21;;;4.16;;
60336;SDS011;46978;50.288;28.624;2022-09-21T04:25:41;7.21;;;4.21;;
60336;SDS011;46978;50.288;28.624;2022-09-21T04:26:46;6.01;;;3.92;;
60336;SDS011;46978;50.288;28.624;2022-09-21T04:27:50;6.91;;;3.93;;
60336;SDS011;46978;50.288;28.624;2022-09-21T04:28:54;6.16;;;4.22;;
60336;SDS011;46978;50.288;28.624;2022-09-21T04:29:58;5.35;;;3.82;;
60336;SDS011;46978;50.288;28.624;2022-09-21T04:31:02;5.31;;;3.52;;
60336;SDS011;46978;50.288;28.624;2022-09-21T04:32:04;6.55;;;3.99;;
60336;SDS011;46978;50.288;28.624;2022-09-21T04:33:08;7.40;;;3.96;;
60336;SDS011;46978;50.288;28.624;2022-09-21T04:34:11;5.97;;;3.71;;
60336;SDS011;46978;50.288;28.624;2022-09-21T04:35:16;5.72;;;4.06;;
60336;SDS011;46978;50.288;28.624;2022-09-21T04:36:20;5.72;;;3.83;;
60336;SDS011;46978;50.288;28.624;2022-09-21T04:37:25;6.39;;;3.94;;
60336;SDS011;46978;50.288;28.624;2022-09-21T04:38:30;5.54;;;3.99;;
60336;SDS011;46978;50.288;28.624;2022-09-21T04:39:34;6.17;;;4.07;;
60336;SDS011;46978;50.288;28.624;2022-09-21T04:40:37;5.57;;;3.58;;
60336;SDS011;46978;50.288;28.624;2022-09-21T04:41:39;6.09;;;3.87;;
60336;SDS011;46978;50.288;28.624;2022-09-21T04:42:43;5.94;;;4.09;;
60336;SDS011;46978;50.288;28.624;2022-09-21T04:43:45;5.56;;;3.91;;
60336;SDS011;46978;50.288;28.624;2022-09-21T04:44:48;6.71;;;4.19;;
60336;SDS011;46978;50.288;28.624;2022-09-21T04:45:50;5.19;;;3.75;;
60336;SDS011;46978;50.288;28.624;2022-09-21T04:46:53;5.93;;;3.90;;
60336;SDS011;46978;50.288;28.624;2022-09-21T04:47:55;6.89;;;4.02;;
60336;SDS011;46978;50.288;28.624;2022-09-21T04:48:56;5.90;;;4.06;;
60336;SDS011;46978;50.288;28.624;2022-09-21T04:49:58;5.37;;;3.64;;
60336;SDS011;46978;50.288;28.624;2022-09-21T04:51:01;7.11;;;4.28;;
60336;SDS011;46978;50.288;28.624;2022-09-21T04:52:03;7.32;;;3.98;;
60336;SDS011;46978;50.288;28.624;2022-09-21T04:53:05;6.37;;;4.09;;
60336;SDS011;46978;50.288;28.624;2022-09-21T04:54:07;5.98;;;4.01;;
60336;SDS011;46978;50.288;28.624;2022-09-21T04:55:09;6.24;;;4.59;;
60336;SDS011;46978;50.288;28.624;2022-09-21T04:56:12;6.41;;;4.53;;
60336;SDS011;46978;50.288;28.624;2022-09-21T04:57:15;6.64;;;4.62;;
60336;SDS011;46978;50.288;28.624;2022-09-21T04:58:16;6.48;;;4.36;;
60336;SDS011;46978;50.288;28.624;2022-09-21T04:59:18;6.28;;;4.16;;
60336;SDS011;46978;50.288;28.624;2022-09-21T05:00:20;6.53;;;4.54;;
60336;SDS011;46978;50.288;28.624;2022-09-21T05:01:21;7.49;;;4.49;;
60336;SDS011;46978;50.288;28.624;2022-09-21T05:02:23;5.80;;;4.28;;
60336;SDS011;46978;50.288;28.624;2022-09-21T05:03:25;6.79;;;4.57;;
60336;SDS011;46978;50.288;28.624;2022-09-21T05:04:27;7.53;;;5.01;;
60336;SDS011;46978;50.288;28.624;2022-09-21T05:05:29;6.72;;;4.44;;
60336;SDS011;46978;50.288;28.624;2022-09-21T05:06:31;6.04;;;4.57;;
60336;SDS011;46978;50.288;28.624;2022-09-21T05:07:33;6.62;;;4.55;;
60336;SDS011;46978;50.288;28.624;2022-09-21T05:08:35;7.14;;;4.39;;
60336;SDS011;46978;50.288;28.624;2022-09-21T05:09:37;6.76;;;4.66;;
60336;SDS011;46978;50.288;28.624;2022-09-21T05:10:38;5.96;;;4.27;;
60336;SDS011;46978;50.288;28.624;2022-09-21T05:11:40;5.88;;;4.16;;
60336;SDS011;46978;50.288;28.624;2022-09-21T05:12:42;6.05;;;4.25;;
60336;SDS011;46978;50.288;28.624;2022-09-21T05:13:44;6.88;;;4.51;;
60336;SDS011;46978;50.288;28.624;2022-09-21T05:14:45;6.51;;;4.54;;
60336;SDS011;46978;50.288;28.624;2022-09-21T05:15:47;6.16;;;4.41;;
60336;SDS011;46978;50.288;28.624;2022-09-21T05:16:49;5.86;;;3.97;;
60336;SDS011;46978;50.288;28.624;2022-09-21T05:17:50;5.79;;;4.15;;
60336;SDS011;46978;50.288;28.624;2022-09-21T05:18:52;5.94;;;4.01;;
60336;SDS011;46978;50.288;28.624;2022-09-21T05:19:54;7.15;;;4.87;;
60336;SDS011;46978;50.288;28.624;2022-09-21T05:20:56;5.84;;;4.33;;
60336;SDS011;46978;50.288;28.624;2022-09-21T05:21:59;7.76;;;4.33;;
60336;SDS011;46978;50.288;28.624;2022-09-21T05:23:01;6.53;;;4.29;;
60336;SDS011;46978;50.288;28.624;2022-09-21T05:24:03;6.22;;;4.21;;
60336;SDS011;46978;50.288;28.624;2022-09-21T05:25:06;6.33;;;4.39;;
60336;SDS011;46978;50.288;28.624;2022-09-21T05:26:09;6.99;;;4.48;;
60336;SDS011;46978;50.288;28.624;2022-09-21T05:27:10;6.94;;;4.44;;
60336;SDS011;46978;50.288;28.624;2022-09-21T05:28:12;6.76;;;4.56;;
60336;SDS011;46978;50.288;28.624;2022-09-21T05:29:15;6.67;;;4.49;;
60336;SDS011;46978;50.288;28.624;2022-09-21T05:30:17;5.87;;;4.25;;
60336;SDS011;46978;50.288;28.624;2022-09-21T05:32:47;6.44;;;4.10;;
60336;SDS011;46978;50.288;28.624;2022-09-21T05:33:52;5.94;;;4.15;;
60336;SDS011;46978;50.288;28.624;2022-09-21T05:35:07;6.22;;;4.06;;
60336;SDS011;46978;50.288;28.624;2022-09-21T05:36:38;6.13;;;4.07;;
60336;SDS011;46978;50.288;28.624;2022-09-21T05:38:46;7.53;;;4.47;;
60336;SDS011;46978;50.288;28.624;2022-09-21T05:39:48;7.41;;;4.57;;
60336;SDS011;46978;50.288;28.624;2022-09-21T05:40:51;6.03;;;4.04;;
60336;SDS011;46978;50.288;28.624;2022-09-21T05:41:53;5.29;;;4.17;;
60336;SDS011;46978;50.288;28.624;2022-09-21T05:42:55;5.67;;;4.03;;
60336;SDS011;46978;50.288;28.624;2022-09-21T05:43:58;6.01;;;3.95;;
60336;SDS011;46978;50.288;28.624;2022-09-21T05:45:00;6.97;;;4.35;;
60336;SDS011;46978;50.288;28.624;2022-09-21T05:46:12;6.89;;;4.78;;
60336;SDS011;46978;50.288;28.624;2022-09-21T05:47:22;5.87;;;4.17;;
60336;SDS011;46978;50.288;28.624;2022-09-21T05:48:30;6.83;;;5.23;;
60336;SDS011;46978;50.288;28.624;2022-09-21T05:49:36;9.93;;;5.14;;
60336;SDS011;46978;50.288;28.624;2022-09-21T05:54:44;8.34;;;5.78;;
60336;SDS011;46978;50.288;28.624;2022-09-21T05:55:59;7.94;;;4.72;;
60336;SDS011;46978;50.288;28.624;2022-09-21T05:57:10;9.32;;;6.58;;
60336;SDS011;46978;50.288;28.624;2022-09-21T06:00:40;10.66;;;6.42;;
60336;SDS011;46978;50.288;28.624;2022-09-21T06:04:09;11.63;;;9.01;;
60336;SDS011;46978;50.288;28.624;2022-09-21T06:05:12;10.60;;;8.61;;
60336;SDS011;46978;50.288;28.624;2022-09-21T06:06:16;9.66;;;7.63;;
60336;SDS011;46978;50.288;28.624;2022-09-21T06:07:19;7.34;;;5.39;;
60336;SDS011;46978;50.288;28.624;2022-09-21T06:08:20;7.85;;;5.05;;
60336;SDS011;46978;50.288;28.624;2022-09-21T06:09:22;7.17;;;4.93;;
60336;SDS011;46978;50.288;28.624;2022-09-21T06:10:24;5.17;;;4.00;;
60336;SDS011;46978;50.288;28.624;2022-09-21T06:11:29;6.26;;;3.98;;
60336;SDS011;46978;50.288;28.624;2022-09-21T06:12:32;5.30;;;3.93;;
60336;SDS011;46978;50.288;28.624;2022-09-21T06:13:33;5.94;;;4.06;;
60336;SDS011;46978;50.288;28.624;2022-09-21T06:14:35;4.88;;;3.88;;
60336;SDS011;46978;50.288;28.624;2022-09-21T06:15:37;6.01;;;4.14;;
60336;SDS011;46978;50.288;28.624;2022-09-21T06:16:39;7.57;;;4.08;;
60336;SDS011;46978;50.288;28.624;2022-09-21T06:17:42;5.06;;;3.81;;
60336;SDS011;46978;50.288;28.624;2022-09-21T06:18:44;5.02;;;3.60;;
60336;SDS011;46978;50.288;28.624;2022-09-21T06:19:46;6.46;;;4.10;;
60336;SDS011;46978;50.288;28.624;2022-09-21T06:20:47;5.84;;;4.09;;
60336;SDS011;46978;50.288;28.624;2022-09-21T06:21:49;5.69;;;4.11;;
60336;SDS011;46978;50.288;28.624;2022-09-21T06:22:50;6.77;;;4.02;;
60336;SDS011;46978;50.288;28.624;2022-09-21T06:23:52;7.54;;;4.21;;
60336;SDS011;46978;50.288;28.624;2022-09-21T06:24:53;6.52;;;3.93;;
60336;SDS011;46978;50.288;28.624;2022-09-21T06:25:55;7.78;;;4.44;;
60336;SDS011;46978;50.288;28.624;2022-09-21T06:26:57;4.97;;;3.75;;
60336;SDS011;46978;50.288;28.624;2022-09-21T06:28:05;6.46;;;4.01;;
60336;SDS011;46978;50.288;28.624;2022-09-21T06:29:08;5.86;;;4.15;;
60336;SDS011;46978;50.288;28.624;2022-09-21T06:30:11;6.68;;;4.58;;
60336;SDS011;46978;50.288;28.624;2022-09-21T06:31:12;5.60;;;3.73;;
60336;SDS011;46978;50.288;28.624;2022-09-21T06:32:14;6.35;;;3.96;;
60336;SDS011;46978;50.288;28.624;2022-09-21T06:33:16;5.64;;;3.72;;
60336;SDS011;46978;50.288;28.624;2022-09-21T06:34:17;6.10;;;3.84;;
60336;SDS011;46978;50.288;28.624;2022-09-21T06:35:19;6.65;;;3.64;;
60336;SDS011;46978;50.288;28.624;2022-09-21T06:36:21;6.36;;;3.87;;
60336;SDS011;46978;50.288;28.624;2022-09-21T06:37:23;6.48;;;3.84;;
60336;SDS011;46978;50.288;28.624;2022-09-21T06:38:25;6.71;;;3.54;;
60336;SDS011;46978;50.288;28.624;2022-09-21T06:39:28;8.11;;;3.71;;
60336;SDS011;46978;50.288;28.624;2022-09-21T06:40:30;7.00;;;3.91;;
60336;SDS011;46978;50.288;28.624;2022-09-21T06:41:33;5.80;;;3.49;;
60336;SDS011;46978;50.288;28.624;2022-09-21T06:42:34;6.26;;;3.91;;
60336;SDS011;46978;50.288;28.624;2022-09-21T06:43:36;10.09;;;4.41;;
60336;SDS011;46978;50.288;28.624;2022-09-21T06:44:38;5.57;;;3.62;;
60336;SDS011;46978;50.288;28.624;2022-09-21T06:45:39;5.71;;;3.51;;
60336;SDS011;46978;50.288;28.624;2022-09-21T06:46:41;7.64;;;4.01;;
60336;SDS011;46978;50.288;28.624;2022-09-21T06:47:46;5.26;;;3.65;;
60336;SDS011;46978;50.288;28.624;2022-09-21T06:48:48;6.44;;;3.68;;
60336;SDS011;46978;50.288;28.624;2022-09-21T06:49:49;6.31;;;3.82;;
60336;SDS011;46978;50.288;28.624;2022-09-21T06:50:57;5.76;;;4.16;;
60336;SDS011;46978;50.288;28.624;2022-09-21T06:52:04;7.28;;;4.62;;
60336;SDS011;46978;50.288;28.624;2022-09-21T06:53:07;7.88;;;4.08;;
60336;SDS011;46978;50.288;28.624;2022-09-21T06:54:09;5.90;;;3.85;;
60336;SDS011;46978;50.288;28.624;2022-09-21T06:55:11;5.09;;;3.33;;
60336;SDS011;46978;50.288;28.624;2022-09-21T06:56:13;4.21;;;2.97;;
60336;SDS011;46978;50.288;28.624;2022-09-21T06:57:15;4.22;;;2.98;;
60336;SDS011;46978;50.288;28.624;2022-09-21T06:58:16;4.87;;;3.23;;